sensor_id;sensor_type;location;lat;lon;timestamp;P1;P2;P0
76330;PMS7003;65148;51.912;15.570;2023-03-16T00:12:22;3;2;2
76330;PMS7003;65148;51.912;15.570;2023-03-16T00:27:25;6;5;4
76330;PMS7003;65148;51.912;15.570;2023-03-16T00:42:29;1;1;1
76330;PMS7003;65148;51.912;15.570;2023-03-16T00:58:00;2;2;1
76330;PMS7003;65148;51.912;15.570;2023-03-16T01:13:04;2;2;2
76330;PMS7003;65148;51.912;15.570;2023-03-16T01:28:07;4;1;0
76330;PMS7003;65148;51.912;15.570;2023-03-16T01:43:09;3;1;1
76330;PMS7003;65148;51.912;15.570;2023-03-16T01:58:26;0;0;0
76330;PMS7003;65148;51.912;15.570;2023-03-16T02:13:30;3;1;0
76330;PMS7003;65148;51.912;15.570;2023-03-16T02:44:09;0;0;0
76330;PMS7003;65148;51.912;15.570;2023-03-16T02:59:15;2;1;1
76330;PMS7003;65148;51.912;15.570;2023-03-16T03:14:17;0;0;0
76330;PMS7003;65148;51.912;15.570;2023-03-16T03:29:18;2;0;0
76330;PMS7003;65148;51.912;15.570;2023-03-16T03:44:33;1;1;1
76330;PMS7003;65148;51.912;15.570;2023-03-16T03:59:34;4;2;2
76330;PMS7003;65148;51.912;15.570;2023-03-16T04:14:43;6;5;3
76330;PMS7003;65148;51.912;15.570;2023-03-16T04:29:44;4;3;2
76330;PMS7003;65148;51.912;15.570;2023-03-16T04:44:59;4;4;3
76330;PMS7003;65148;51.912;15.570;2023-03-16T05:00:02;8;4;0
76330;PMS7003;65148;51.912;15.570;2023-03-16T05:15:19;14;14;10
76330;PMS7003;65148;51.912;15.570;2023-03-16T05:30:42;4;4;3
76330;PMS7003;65148;51.912;15.570;2023-03-16T05:45:44;4;4;3
76330;PMS7003;65148;51.912;15.570;2023-03-16T06:00:46;5;5;4
76330;PMS7003;65148;51.912;15.570;2023-03-16T06:15:50;19;15;12
76330;PMS7003;65148;51.912;15.570;2023-03-16T06:31:09;9;9;7
76330;PMS7003;65148;51.912;15.570;2023-03-16T06:46:10;7;6;5
76330;PMS7003;65148;51.912;15.570;2023-03-16T07:01:13;5;4;3
76330;PMS7003;65148;51.912;15.570;2023-03-16T07:16:15;7;4;4
76330;PMS7003;65148;51.912;15.570;2023-03-16T07:31:35;7;3;3
76330;PMS7003;65148;51.912;15.570;2023-03-16T07:46:36;4;3;2
76330;PMS7003;65148;51.912;15.570;2023-03-16T08:01:38;2;0;0
76330;PMS7003;65148;51.912;15.570;2023-03-16T08:16:39;1;0;0
76330;PMS7003;65148;51.912;15.570;2023-03-16T08:32:01;2;1;1
76330;PMS7003;65148;51.912;15.570;2023-03-16T08:47:03;5;0;0
76330;PMS7003;65148;51.912;15.570;2023-03-16T09:02:04;0;0;0
76330;PMS7003;65148;51.912;15.570;2023-03-16T09:17:06;0;0;0
76330;PMS7003;65148;51.912;15.570;2023-03-16T09:32:25;0;0;0
76330;PMS7003;65148;51.912;15.570;2023-03-16T09:47:27;0;0;0
76330;PMS7003;65148;51.912;15.570;2023-03-16T10:02:39;0;0;0
76330;PMS7003;65148;51.912;15.570;2023-03-16T10:18:04;1;0;0
76330;PMS7003;65148;51.912;15.570;2023-03-16T10:33:17;2;0;0
76330;PMS7003;65148;51.912;15.570;2023-03-16T10:48:26;0;0;0
76330;PMS7003;65148;51.912;15.570;2023-03-16T11:03:46;0;0;0
76330;PMS7003;65148;51.912;15.570;2023-03-16T11:18:54;0;0;0
76330;PMS7003;65148;51.912;15.570;2023-03-16T11:33:58;0;0;0
76330;PMS7003;65148;51.912;15.570;2023-03-16T12:04:48;0;0;0
76330;PMS7003;65148;51.912;15.570;2023-03-16T12:20:00;0;0;0
76330;PMS7003;65148;51.912;15.570;2023-03-16T13:06:22;0;0;0
76330;PMS7003;65148;51.912;15.570;2023-03-16T13:36:37;0;0;0
76330;PMS7003;65148;51.912;15.570;2023-03-16T14:06:28;0;0;0
76330;PMS7003;65148;51.912;15.570;2023-03-16T14:21:33;2;1;1
76330;PMS7003;65148;51.912;15.570;2023-03-16T14:36:35;1;0;0
76330;PMS7003;65148;51.912;15.570;2023-03-16T14:51:50;0;0;0
76330;PMS7003;65148;51.912;15.570;2023-03-16T15:06:53;8;7;7
76330;PMS7003;65148;51.912;15.570;2023-03-16T15:21:55;0;0;0
76330;PMS7003;65148;51.912;15.570;2023-03-16T15:36:58;52;40;26
76330;PMS7003;65148;51.912;15.570;2023-03-16T15:52:35;0;0;0
76330;PMS7003;65148;51.912;15.570;2023-03-16T16:07:27;0;0;0
76330;PMS7003;65148;51.912;15.570;2023-03-16T16:22:30;0;0;0
76330;PMS7003;65148;51.912;15.570;2023-03-16T16:37:53;14;10;8
76330;PMS7003;65148;51.912;15.570;2023-03-16T16:52:54;19;14;11
76330;PMS7003;65148;51.912;15.570;2023-03-16T17:07:57;8;6;4
76330;PMS7003;65148;51.912;15.570;2023-03-16T17:23:03;2;2;2
76330;PMS7003;65148;51.912;15.570;2023-03-16T17:38:27;17;17;13
76330;PMS7003;65148;51.912;15.570;2023-03-16T17:53:30;19;19;15
76330;PMS7003;65148;51.912;15.570;2023-03-16T18:08:32;43;35;22
76330;PMS7003;65148;51.912;15.570;2023-03-16T18:23:37;30;26;20
76330;PMS7003;65148;51.912;15.570;2023-03-16T18:38:53;40;32;23
76330;PMS7003;65148;51.912;15.570;2023-03-16T18:53:57;67;51;29
76330;PMS7003;65148;51.912;15.570;2023-03-16T19:39:48;51;41;27
76330;PMS7003;65148;51.912;15.570;2023-03-16T19:54:49;22;18;14
76330;PMS7003;65148;51.912;15.570;2023-03-16T20:09:51;15;12;9
76330;PMS7003;65148;51.912;15.570;2023-03-16T20:25:06;17;13;10
76330;PMS7003;65148;51.912;15.570;2023-03-16T20:40:08;9;8;7
76330;PMS7003;65148;51.912;15.570;2023-03-16T21:10:47;26;23;17
76330;PMS7003;65148;51.912;15.570;2023-03-16T21:41:00;30;26;18
76330;PMS7003;65148;51.912;15.570;2023-03-16T21:56:29;25;19;15
76330;PMS7003;65148;51.912;15.570;2023-03-16T22:11:30;34;27;19
76330;PMS7003;65148;51.912;15.570;2023-03-16T22:26:32;38;34;23
76330;PMS7003;65148;51.912;15.570;2023-03-16T22:41:33;40;33;21
76330;PMS7003;65148;51.912;15.570;2023-03-16T22:56:57;13;12;10
76330;PMS7003;65148;51.912;15.570;2023-03-16T23:11:58;11;5;3
76330;PMS7003;65148;51.912;15.570;2023-03-16T23:27:03;13;10;9
76330;PMS7003;65148;51.912;15.570;2023-03-16T23:42:40;13;11;8
76330;PMS7003;65148;51.912;15.570;2023-03-16T23:57:42;28;22;16
